Terminal Aerodrome Forecast
Issued by NWS

Home | Current Version | Previous Version | Text Only | Print | Product List | Glossary On
Versions: 1 2 3 4 5 6 7 8 9 10 11 12 13
000
FTUS43 KPAH 271120
TAFOWB
TAF
KOWB 271120Z 2712/2812 00000KT 5SM BR SCT100 BKN200
     FM271500 VRB05KT P6SM SCT045
     FM280600 00000KT 4SM BR SKC=

USA.gov is the U.S. government's official web portal to all federal, state and local government web resources and services.